Camden, IN (46917)

9:51 AM EST on February 28, 2015 (GMT -0500)
Carroll Jr/Sr High School | Change Station
CLOSE
Current Station
Personal Weather Station
Location: Flora, IN
Elevation: 715 ft
Nearby Weather Stations
Active Advisory: Winter Weather Advisory

Elev 715 ft 40.55 °N, 86.48 °W | Updated 33 seconds ago

Partly Cloudy
Partly Cloudy
12.8 °F
Feels Like 3 °F
N
6.1
Wind Variable Wind from SE
Gusts 8.3 mph

Today
High -- | Low -- °F
--% Chance of Precip.
Yesterday
High -- | Low -- °F
Precip. -- in
7:21 AM 6:35 PM
Waxing Gibbous, 78% visible
Pressure 30.73 in
Visibility 10.0 miles
Clouds Scattered Clouds 10000 ft
Windchill 3 °F
Dew Point -21 °F
Humidity 20%
Rainfall 0.00 in
Snow Depth Not available.
UV 1 out of 12
Pollen .60 out of 12
Air Quality Not available.
Flu Activity Not available.
METAR KGGP 281435Z AUTO 09006KT 10SM SCT100 M12/M17 A3073 RMK AO2

More Conditions Fewer Conditions

Pressure 30.73 in
Visibility 10.0 miles
Clouds Scattered Clouds 10000 ft
Windchill 3 °F
Dew Point -21 °F
Humidity 20%
Rainfall 0.00 in
Snow Depth Not available.
UV 1 out of 12
Pollen .60 out of 12
Air Quality Not available.
Flu Activity Not available.
METAR KGGP 281435Z AUTO 09006KT 10SM SCT100 M12/M17 A3073 RMK AO2

More Conditions Fewer Conditions

10-Day Weather Forecast

Almanac

Astronomy

Feb. 28, 2015 Rise Set
Actual Time
Civil Twilight
Nautical Twilight
Astronomical Twilight
Moon
Length of Visible Light
Length of Day
Tomorrow will be .
, % of the Moon is Illuminated

Today's Extremes

State Highs State Lows

Community

WunderPhotos

Upload Photos

1,801,025 photos uploaded!

WunderBlogs® & News

Nearby

Air Quality

  Air Quality AQ Index Pollutant
Not available.

Snow Depth

Station Depth Elevation

Earthquake Activity

City Distance Mag. Time & Date
Minimum magnitude displayed is 2.5.

Coastal Water Temperatures

Place Temperature

Nearby Weather Stations

Winter Weather Advisory
Statement as of 4:03 AM EST on February 28, 2015

... Winter Weather Advisory in effect from 7 PM this evening to
7 PM EST Sunday...

The National Weather Service in Indianapolis has issued a Winter
Weather Advisory for 4 to 6 inches of snow... which is in effect
from 7 PM this evening to 7 PM EST Sunday.

* Timing... accumulating snow beginning around sunset and lasting
through the day Sunday. The snow may mix with rain at times
during the day Sunday.

* Main impact... hazardous travel conditions due to accumulating
snow.

* Other impacts... reduced visibility in areas of heavier snow.

Precautionary/preparedness actions...

A Winter Weather Advisory for snow means that periods of snow
will cause primarily travel difficulties. Be prepared for snow
covered roads and limited visibilities... and use caution while
driving.